Hearne, TX

11:41 PM CST on February 26, 2017 (GMT -0600)
Hearne

Weather History for KLHB - March, 2013

Change the Weather History Date:

Tuesday, March 5, 2013

  Actual Average (KCLL) Record (KCLL)
Temperature  
Mean Temperature 48 °F -  
Max Temperature 62 °F 65 °F 89 °F (1991)
Min Temperature 33 °F 45 °F 17 °F (2002)
Degree Days  
Heating Degree Days 18    
Moisture  
Dew Point 31 °F    
Average Humidity 46    
Maximum Humidity 88    
Minimum Humidity 22    
Precipitation  
Precipitation 0.00 in - - ()
Sea Level Pressure  
Sea Level Pressure 30.19 in    
Wind  
Wind Speed 15 mph (NNW)    
Max Wind Speed 32 mph    
Max Gust Speed 47 mph    
Visibility 10 miles    
Events      
Averages and records for this station are not official NWS values.
T = Trace of Precipitation, MM = Missing Value Source: NWS Daily Summary

Daily Weather History Graph

Daily Weather History Graph

Search for Another Location

Airport or City:

Trip Planner

Search our weather history database for the weather conditions in past years. The results will help you decide how hot, cold, wet, or windy it might be!

Date:

Astronomy

Mar. 05, 2013 Rise Set
Actual Time 6:48 AM CST 6:28 PM CST
Civil Twilight 6:23 AM CST 6:52 PM CST
Nautical Twilight 5:55 AM CST 7:20 PM CST
Astronomical Twilight 5:28 AM CST 7:48 PM CST
Moon 1:44 AM CST (3/5) 12:25 PM CST (3/5)
Length of Visible Light 12h 28m
Length of Day
11h 39m
Last Quarter, 40% of the Moon is Illuminated
Mar 5
Last Quarter
Mar 11
New
Mar 19
First Quarter
Mar 27
Full
Apr 2
Last Quarter

Hourly Weather History & Observations

Time (CST) Temp. Windchill Dew Point Humidity Pressure Visibility Wind Dir Wind Speed Gust Speed Precip Events Conditions
12:15 AM 60.8 °F - 55.4 °F 82% 29.76 in 10.0 mi SSE 9.2 mph - N/A   Clear
12:35 AM 60.8 °F - 55.4 °F 82% 29.76 in 10.0 mi SSE 9.2 mph - N/A   Clear
12:55 AM 59.0 °F - 55.4 °F 88% 29.76 in 10.0 mi SSE 9.2 mph - N/A   Clear
1:15 AM 59.0 °F - 55.4 °F 88% 29.76 in 10.0 mi SSE 8.1 mph - N/A   Clear
1:35 AM 59.0 °F - 55.4 °F 88% 29.78 in 10.0 mi SSE 5.8 mph - N/A   Clear
1:55 AM 59.0 °F - 55.4 °F 88% 29.77 in 10.0 mi SSE 8.1 mph - N/A   Clear
2:15 AM 60.8 °F - 57.2 °F 88% 29.87 in 10.0 mi NW 12.7 mph 29.9 mph N/A   Scattered Clouds
2:35 AM 62.6 °F - 57.2 °F 82% 29.86 in 10.0 mi West 4.6 mph 24.2 mph N/A   Mostly Cloudy
2:55 AM 62.6 °F - 55.4 °F 77% 29.90 in 10.0 mi WNW 8.1 mph - N/A   Scattered Clouds
3:15 AM 59.0 °F - 46.4 °F 63% 29.93 in 10.0 mi NW 32.2 mph 36.8 mph N/A   Clear
3:35 AM 55.4 °F - 42.8 °F 63% 29.96 in 10.0 mi NNW 25.3 mph 47.2 mph N/A   Clear
3:55 AM 53.6 °F - 41.0 °F 62% 29.99 in 10.0 mi NNW 28.8 mph 42.6 mph N/A   Clear
4:15 AM 51.8 °F - 39.2 °F 62% 30.01 in 10.0 mi NNW 23.0 mph 34.5 mph N/A   Clear
4:35 AM 51.8 °F - 37.4 °F 58% 30.04 in 10.0 mi NNW 24.2 mph 41.4 mph N/A   Clear
4:55 AM 50.0 °F - 37.4 °F 62% 30.06 in 10.0 mi NNW 17.3 mph - N/A   Clear
5:15 AM 50.0 °F - 37.4 °F 62% 30.09 in 10.0 mi NNW 23.0 mph 36.8 mph N/A   Clear
5:35 AM 50.0 °F - 37.4 °F 62% 30.11 in 10.0 mi NNW 19.6 mph - N/A   Clear
5:55 AM 50.0 °F - 37.4 °F 62% 30.13 in 10.0 mi NNW 21.9 mph 27.6 mph N/A   Clear
6:15 AM 50.0 °F - 35.6 °F 58% 30.15 in 10.0 mi NNW 20.7 mph 28.8 mph N/A   Clear
6:35 AM 50.0 °F - 35.6 °F 58% 30.15 in 10.0 mi North 18.4 mph 25.3 mph N/A   Clear
7:15 AM 50.0 °F - 33.8 °F 54% 30.17 in 10.0 mi North 20.7 mph 28.8 mph N/A   Clear
7:35 AM 50.0 °F - 33.8 °F 54% 30.19 in 10.0 mi North 18.4 mph 24.2 mph N/A   Clear
7:55 AM 50.0 °F - 33.8 °F 54% 30.21 in 10.0 mi NNW 15.0 mph 21.9 mph N/A   Clear
8:15 AM 51.8 °F - 33.8 °F 50% 30.22 in 10.0 mi North 19.6 mph 27.6 mph N/A   Clear
8:35 AM 51.8 °F - 33.8 °F 50% 30.23 in 10.0 mi North 23.0 mph 33.4 mph N/A   Clear
8:55 AM 51.8 °F - 32.0 °F 47% 30.25 in 10.0 mi North 19.6 mph 32.2 mph N/A   Clear
9:15 AM 53.6 °F - 28.4 °F 38% 30.24 in 10.0 mi North 26.5 mph 34.5 mph N/A   Clear
9:35 AM 53.6 °F - 28.4 °F 38% 30.25 in 10.0 mi NNW 20.7 mph 32.2 mph N/A   Clear
9:55 AM 55.4 °F - 28.4 °F 36% 30.26 in 10.0 mi NNW 24.2 mph 31.1 mph N/A   Clear
10:15 AM 55.4 °F - 26.6 °F 33% 30.26 in 10.0 mi NNW 21.9 mph 29.9 mph N/A   Clear
10:35 AM 55.4 °F - 24.8 °F 31% 30.27 in 10.0 mi NNW 23.0 mph 31.1 mph N/A   Clear
10:55 AM 55.4 °F - 24.8 °F 31% 30.28 in 10.0 mi North 21.9 mph 29.9 mph N/A   Clear
11:15 AM 57.2 °F - 23.0 °F 27% 30.28 in 10.0 mi NNW 24.2 mph 31.1 mph N/A   Clear
11:35 AM 57.2 °F - 24.8 °F 29% 30.29 in 10.0 mi North 18.4 mph 26.5 mph N/A   Clear
11:55 AM 59.0 °F - 26.6 °F 29% 30.29 in 10.0 mi NNW 23.0 mph 27.6 mph N/A   Clear
12:15 PM 57.2 °F - 26.6 °F 31% 30.29 in 10.0 mi NNW 20.7 mph 29.9 mph N/A   Clear
12:35 PM 59.0 °F - 28.4 °F 31% 30.28 in 10.0 mi North 18.4 mph 29.9 mph N/A   Clear
12:55 PM 59.0 °F - 26.6 °F 29% 30.27 in 10.0 mi NNW 18.4 mph 26.5 mph N/A   Clear
1:15 PM 60.8 °F - 26.6 °F 27% 30.27 in 10.0 mi NNW 19.6 mph 24.2 mph N/A   Clear
1:35 PM 60.8 °F - 26.6 °F 27% 30.27 in 10.0 mi NNW 20.7 mph 25.3 mph N/A   Clear
1:55 PM 60.8 °F - 23.0 °F 23% 30.26 in 10.0 mi NNW 21.9 mph 27.6 mph N/A   Clear
2:15 PM 60.8 °F - 24.8 °F 25% 30.26 in 10.0 mi NNW 16.1 mph 29.9 mph N/A   Clear
2:35 PM 60.8 °F - 21.2 °F 22% 30.26 in 10.0 mi NNW 21.9 mph 28.8 mph N/A   Clear
2:55 PM 60.8 °F - 21.2 °F 22% 30.27 in 10.0 mi NNW 18.4 mph 27.6 mph N/A   Clear
3:15 PM 60.8 °F - 23.0 °F 23% 30.27 in 10.0 mi NW 16.1 mph 24.2 mph N/A   Clear
3:35 PM 60.8 °F - 23.0 °F 23% 30.27 in 10.0 mi NNW 18.4 mph 28.8 mph N/A   Clear
3:55 PM 60.8 °F - 23.0 °F 23% 30.27 in 10.0 mi NNW 18.4 mph 25.3 mph N/A   Clear
4:15 PM 60.8 °F - 21.2 °F 22% 30.27 in 10.0 mi North 15.0 mph 26.5 mph N/A   Clear
4:35 PM 60.8 °F - 21.2 °F 22% 30.27 in 10.0 mi NW 18.4 mph 24.2 mph N/A   Clear
4:55 PM 60.8 °F - 21.2 °F 22% 30.27 in 10.0 mi North 19.6 mph 24.2 mph N/A   Clear
5:15 PM 59.0 °F - 19.4 °F 22% 30.27 in 10.0 mi NNW 15.0 mph 20.7 mph N/A   Clear
5:35 PM 59.0 °F - 19.4 °F 22% 30.28 in 10.0 mi NNW 16.1 mph - N/A   Clear
5:55 PM 57.2 °F - 19.4 °F 23% 30.29 in 10.0 mi NW 12.7 mph - N/A   Clear
6:15 PM 55.4 °F - 19.4 °F 25% 30.29 in 10.0 mi NNW 11.5 mph - N/A   Clear
6:35 PM 51.8 °F - 21.2 °F 30% 30.30 in 10.0 mi North 10.4 mph - N/A   Clear
6:55 PM 50.0 °F - 21.2 °F 32% 30.31 in 10.0 mi NNW 10.4 mph - N/A   Clear
7:15 PM 50.0 °F - 21.2 °F 32% 30.32 in 10.0 mi NNW 9.2 mph - N/A   Clear
7:35 PM 46.4 °F 41.9 °F 21.2 °F 37% 30.32 in 10.0 mi North 9.2 mph - N/A   Clear
7:55 PM 46.4 °F 41.5 °F 21.2 °F 37% 30.32 in 10.0 mi North 10.4 mph - N/A   Clear
8:15 PM 44.6 °F 39.7 °F 21.2 °F 39% 30.33 in 10.0 mi NNW 9.2 mph - N/A   Clear
8:35 PM 44.6 °F 41.4 °F 23.0 °F 43% 30.33 in 10.0 mi NNW 5.8 mph - N/A   Clear
8:55 PM 42.8 °F 39.3 °F 21.2 °F 42% 30.34 in 10.0 mi NW 5.8 mph - N/A   Clear
9:15 PM 41.0 °F 36.4 °F 21.2 °F 45% 30.34 in 10.0 mi NNW 6.9 mph - N/A   Clear
9:35 PM 37.4 °F 33.8 °F 23.0 °F 56% 30.34 in 10.0 mi NNW 4.6 mph - N/A   Clear
9:55 PM 37.4 °F 34.9 °F 23.0 °F 56% 30.35 in 10.0 mi NNW 3.5 mph - N/A   Clear
10:15 PM 39.2 °F 37.0 °F 23.0 °F 52% 30.35 in 10.0 mi NNW 3.5 mph - N/A   Clear
10:35 PM 37.4 °F 34.9 °F 23.0 °F 56% 30.36 in 10.0 mi WNW 3.5 mph - N/A   Clear
10:55 PM 35.6 °F 31.7 °F 21.2 °F 56% 30.36 in 10.0 mi NW 4.6 mph - N/A   Clear
11:15 PM 33.8 °F - 23.0 °F 65% 30.37 in 10.0 mi Calm Calm - N/A   Clear
11:35 PM 35.6 °F - 23.0 °F 60% 30.36 in 10.0 mi Calm Calm - N/A   Clear
11:55 PM 35.6 °F 32.8 °F 23.0 °F 60% 30.36 in 10.0 mi South 3.5 mph - N/A   Clear